sensor_id;sensor_type;location;lat;lon;timestamp;P1;durP1;ratioP1;P2;durP2;ratioP2
60054;SDS011;45930;53.514;55.904;2023-01-15T00:00:42;12.40;;;5.70;;
60054;SDS011;45930;53.514;55.904;2023-01-15T00:01:42;11.18;;;5.63;;
60054;SDS011;45930;53.514;55.904;2023-01-15T00:02:43;10.02;;;5.70;;
60054;SDS011;45930;53.514;55.904;2023-01-15T00:03:44;11.17;;;6.20;;
60054;SDS011;45930;53.514;55.904;2023-01-15T00:04:45;15.50;;;5.25;;
60054;SDS011;45930;53.514;55.904;2023-01-15T00:05:49;11.02;;;5.95;;
60054;SDS011;45930;53.514;55.904;2023-01-15T00:06:50;12.77;;;6.50;;
60054;SDS011;45930;53.514;55.904;2023-01-15T00:07:51;8.40;;;5.70;;
60054;SDS011;45930;53.514;55.904;2023-01-15T00:08:53;13.40;;;5.43;;
60054;SDS011;45930;53.514;55.904;2023-01-15T00:09:54;12.23;;;5.50;;
60054;SDS011;45930;53.514;55.904;2023-01-15T00:10:55;11.77;;;5.63;;
60054;SDS011;45930;53.514;55.904;2023-01-15T00:11:56;14.10;;;6.80;;
60054;SDS011;45930;53.514;55.904;2023-01-15T00:12:56;10.00;;;6.13;;
60054;SDS011;45930;53.514;55.904;2023-01-15T00:13:57;10.20;;;6.53;;
60054;SDS011;45930;53.514;55.904;2023-01-15T00:14:58;10.35;;;5.68;;
60054;SDS011;45930;53.514;55.904;2023-01-15T00:16:32;9.73;;;5.80;;
60054;SDS011;45930;53.514;55.904;2023-01-15T00:17:27;9.68;;;6.28;;
60054;SDS011;45930;53.514;55.904;2023-01-15T00:18:30;8.02;;;6.10;;
60054;SDS011;45930;53.514;55.904;2023-01-15T00:19:31;11.83;;;6.53;;
60054;SDS011;45930;53.514;55.904;2023-01-15T00:20:32;11.33;;;6.00;;
60054;SDS011;45930;53.514;55.904;2023-01-15T00:21:33;10.73;;;6.67;;
60054;SDS011;45930;53.514;55.904;2023-01-15T00:22:34;14.13;;;6.38;;
60054;SDS011;45930;53.514;55.904;2023-01-15T00:23:34;14.67;;;6.83;;
60054;SDS011;45930;53.514;55.904;2023-01-15T00:24:54;10.70;;;6.93;;
60054;SDS011;45930;53.514;55.904;2023-01-15T00:26:16;11.70;;;6.55;;
60054;SDS011;45930;53.514;55.904;2023-01-15T00:27:36;9.85;;;6.05;;
60054;SDS011;45930;53.514;55.904;2023-01-15T00:28:37;11.17;;;5.73;;
60054;SDS011;45930;53.514;55.904;2023-01-15T00:29:38;12.00;;;5.87;;
60054;SDS011;45930;53.514;55.904;2023-01-15T00:30:39;11.57;;;5.27;;
60054;SDS011;45930;53.514;55.904;2023-01-15T00:31:42;10.45;;;5.47;;
60054;SDS011;45930;53.514;55.904;2023-01-15T00:32:45;7.45;;;4.88;;
60054;SDS011;45930;53.514;55.904;2023-01-15T00:33:45;6.77;;;4.50;;
60054;SDS011;45930;53.514;55.904;2023-01-15T00:34:46;10.70;;;5.57;;
60054;SDS011;45930;53.514;55.904;2023-01-15T00:35:47;7.03;;;4.13;;
60054;SDS011;45930;53.514;55.904;2023-01-15T00:36:48;9.10;;;4.83;;
60054;SDS011;45930;53.514;55.904;2023-01-15T00:37:48;8.80;;;5.80;;
60054;SDS011;45930;53.514;55.904;2023-01-15T00:38:50;8.00;;;4.95;;
60054;SDS011;45930;53.514;55.904;2023-01-15T00:39:51;8.60;;;4.97;;
60054;SDS011;45930;53.514;55.904;2023-01-15T00:40:51;9.83;;;5.33;;
60054;SDS011;45930;53.514;55.904;2023-01-15T00:41:52;11.83;;;5.20;;
60054;SDS011;45930;53.514;55.904;2023-01-15T00:42:53;11.07;;;6.10;;
60054;SDS011;45930;53.514;55.904;2023-01-15T00:43:54;8.20;;;4.60;;
60054;SDS011;45930;53.514;55.904;2023-01-15T00:44:56;7.63;;;4.18;;
60054;SDS011;45930;53.514;55.904;2023-01-15T00:45:57;8.80;;;4.27;;
60054;SDS011;45930;53.514;55.904;2023-01-15T00:46:57;10.60;;;5.53;;
60054;SDS011;45930;53.514;55.904;2023-01-15T00:47:58;8.80;;;4.90;;
60054;SDS011;45930;53.514;55.904;2023-01-15T00:48:59;11.93;;;5.67;;
60054;SDS011;45930;53.514;55.904;2023-01-15T00:50:01;9.25;;;4.90;;
60054;SDS011;45930;53.514;55.904;2023-01-15T00:51:02;8.60;;;5.00;;
60054;SDS011;45930;53.514;55.904;2023-01-15T00:52:04;7.15;;;4.43;;
60054;SDS011;45930;53.514;55.904;2023-01-15T00:53:04;7.60;;;5.10;;
60054;SDS011;45930;53.514;55.904;2023-01-15T00:54:05;7.73;;;4.73;;
60054;SDS011;45930;53.514;55.904;2023-01-15T00:55:06;10.10;;;5.83;;
60054;SDS011;45930;53.514;55.904;2023-01-15T00:56:08;10.07;;;5.53;;
60054;SDS011;45930;53.514;55.904;2023-01-15T00:57:09;13.80;;;5.53;;
60054;SDS011;45930;53.514;55.904;2023-01-15T00:58:10;7.78;;;5.35;;
60054;SDS011;45930;53.514;55.904;2023-01-15T00:59:11;8.00;;;4.80;;
60054;SDS011;45930;53.514;55.904;2023-01-15T01:00:12;9.07;;;5.07;;
60054;SDS011;45930;53.514;55.904;2023-01-15T01:01:13;9.40;;;5.95;;
60054;SDS011;45930;53.514;55.904;2023-01-15T01:02:14;7.70;;;5.45;;
60054;SDS011;45930;53.514;55.904;2023-01-15T01:03:15;9.93;;;6.03;;
60054;SDS011;45930;53.514;55.904;2023-01-15T01:04:16;9.00;;;5.27;;
60054;SDS011;45930;53.514;55.904;2023-01-15T01:05:17;12.90;;;5.60;;
60054;SDS011;45930;53.514;55.904;2023-01-15T01:06:18;11.07;;;5.60;;
60054;SDS011;45930;53.514;55.904;2023-01-15T01:07:20;8.25;;;5.18;;
60054;SDS011;45930;53.514;55.904;2023-01-15T01:08:20;8.37;;;4.80;;
60054;SDS011;45930;53.514;55.904;2023-01-15T01:09:21;9.23;;;4.47;;
60054;SDS011;45930;53.514;55.904;2023-01-15T01:10:22;7.03;;;4.93;;
60054;SDS011;45930;53.514;55.904;2023-01-15T01:11:23;7.93;;;5.23;;
60054;SDS011;45930;53.514;55.904;2023-01-15T01:12:26;9.77;;;5.43;;
60054;SDS011;45930;53.514;55.904;2023-01-15T01:13:27;7.07;;;4.80;;
60054;SDS011;45930;53.514;55.904;2023-01-15T01:14:28;6.90;;;4.47;;
60054;SDS011;45930;53.514;55.904;2023-01-15T01:15:29;6.13;;;4.93;;
60054;SDS011;45930;53.514;55.904;2023-01-15T01:16:34;8.50;;;4.95;;
60054;SDS011;45930;53.514;55.904;2023-01-15T01:17:36;8.63;;;4.40;;
60054;SDS011;45930;53.514;55.904;2023-01-15T01:18:38;8.10;;;5.43;;
60054;SDS011;45930;53.514;55.904;2023-01-15T01:19:38;8.07;;;4.60;;
60054;SDS011;45930;53.514;55.904;2023-01-15T01:20:39;8.33;;;4.93;;
60054;SDS011;45930;53.514;55.904;2023-01-15T01:21:41;7.67;;;4.67;;
60054;SDS011;45930;53.514;55.904;2023-01-15T01:22:42;7.72;;;5.05;;
60054;SDS011;45930;53.514;55.904;2023-01-15T01:23:43;8.30;;;4.87;;
60054;SDS011;45930;53.514;55.904;2023-01-15T01:24:44;11.02;;;4.60;;
60054;SDS011;45930;53.514;55.904;2023-01-15T01:25:45;14.33;;;5.33;;
60054;SDS011;45930;53.514;55.904;2023-01-15T01:26:46;8.87;;;5.17;;
60054;SDS011;45930;53.514;55.904;2023-01-15T01:27:47;6.13;;;4.47;;
60054;SDS011;45930;53.514;55.904;2023-01-15T01:28:51;8.10;;;4.40;;
60054;SDS011;45930;53.514;55.904;2023-01-15T01:29:53;6.63;;;4.82;;
60054;SDS011;45930;53.514;55.904;2023-01-15T01:30:54;9.67;;;4.70;;
60054;SDS011;45930;53.514;55.904;2023-01-15T01:31:55;9.10;;;4.73;;
60054;SDS011;45930;53.514;55.904;2023-01-15T01:32:55;6.43;;;4.93;;
60054;SDS011;45930;53.514;55.904;2023-01-15T01:33:57;6.37;;;4.07;;
60054;SDS011;45930;53.514;55.904;2023-01-15T01:34:58;9.45;;;4.55;;
60054;SDS011;45930;53.514;55.904;2023-01-15T01:35:59;10.60;;;5.07;;
60054;SDS011;45930;53.514;55.904;2023-01-15T01:37:00;7.20;;;4.20;;
60054;SDS011;45930;53.514;55.904;2023-01-15T01:38:00;7.70;;;5.67;;
60054;SDS011;45930;53.514;55.904;2023-01-15T01:39:02;9.70;;;5.20;;
60054;SDS011;45930;53.514;55.904;2023-01-15T01:40:04;6.75;;;4.53;;
60054;SDS011;45930;53.514;55.904;2023-01-15T01:41:05;8.13;;;4.47;;
60054;SDS011;45930;53.514;55.904;2023-01-15T01:42:13;7.27;;;4.83;;
60054;SDS011;45930;53.514;55.904;2023-01-15T01:43:16;7.45;;;4.93;;
60054;SDS011;45930;53.514;55.904;2023-01-15T01:45:34;8.10;;;4.85;;
60054;SDS011;45930;53.514;55.904;2023-01-15T01:46:35;8.63;;;5.13;;
60054;SDS011;45930;53.514;55.904;2023-01-15T01:47:35;8.50;;;4.50;;
60054;SDS011;45930;53.514;55.904;2023-01-15T01:48:36;7.13;;;4.50;;
60054;SDS011;45930;53.514;55.904;2023-01-15T01:49:37;6.83;;;4.47;;
60054;SDS011;45930;53.514;55.904;2023-01-15T01:50:39;8.50;;;4.45;;
60054;SDS011;45930;53.514;55.904;2023-01-15T01:51:45;8.20;;;4.32;;
60054;SDS011;45930;53.514;55.904;2023-01-15T01:52:53;10.90;;;5.65;;
60054;SDS011;45930;53.514;55.904;2023-01-15T01:53:57;11.05;;;4.90;;
60054;SDS011;45930;53.514;55.904;2023-01-15T01:54:59;8.63;;;4.75;;
60054;SDS011;45930;53.514;55.904;2023-01-15T01:56:02;7.60;;;4.70;;
60054;SDS011;45930;53.514;55.904;2023-01-15T01:57:03;6.57;;;4.45;;
60054;SDS011;45930;53.514;55.904;2023-01-15T01:58:06;4.90;;;4.38;;
60054;SDS011;45930;53.514;55.904;2023-01-15T01:59:10;7.20;;;4.20;;
60054;SDS011;45930;53.514;55.904;2023-01-15T02:00:11;12.18;;;4.90;;
60054;SDS011;45930;53.514;55.904;2023-01-15T02:01:14;8.82;;;3.83;;
60054;SDS011;45930;53.514;55.904;2023-01-15T02:02:16;7.10;;;4.55;;
60054;SDS011;45930;53.514;55.904;2023-01-15T02:03:22;7.90;;;4.20;;
60054;SDS011;45930;53.514;55.904;2023-01-15T02:04:28;6.38;;;4.22;;
60054;SDS011;45930;53.514;55.904;2023-01-15T02:05:31;5.75;;;3.90;;
60054;SDS011;45930;53.514;55.904;2023-01-15T02:06:35;7.70;;;4.65;;
60054;SDS011;45930;53.514;55.904;2023-01-15T02:07:37;5.57;;;4.50;;
60054;SDS011;45930;53.514;55.904;2023-01-15T02:08:38;6.13;;;4.43;;
60054;SDS011;45930;53.514;55.904;2023-01-15T02:09:39;6.70;;;4.70;;
60054;SDS011;45930;53.514;55.904;2023-01-15T02:10:40;6.63;;;4.70;;
60054;SDS011;45930;53.514;55.904;2023-01-15T02:11:40;8.37;;;4.33;;
60054;SDS011;45930;53.514;55.904;2023-01-15T02:12:43;8.93;;;4.20;;
60054;SDS011;45930;53.514;55.904;2023-01-15T02:13:54;7.70;;;4.45;;
60054;SDS011;45930;53.514;55.904;2023-01-15T02:16:23;8.27;;;4.90;;
60054;SDS011;45930;53.514;55.904;2023-01-15T02:22:54;6.97;;;4.60;;
60054;SDS011;45930;53.514;55.904;2023-01-15T02:27:17;6.90;;;4.03;;
60054;SDS011;45930;53.514;55.904;2023-01-15T02:28:22;8.82;;;4.28;;
60054;SDS011;45930;53.514;55.904;2023-01-15T02:29:28;8.13;;;4.45;;
60054;SDS011;45930;53.514;55.904;2023-01-15T02:30:38;9.25;;;4.53;;
60054;SDS011;45930;53.514;55.904;2023-01-15T02:31:43;8.23;;;4.45;;
60054;SDS011;45930;53.514;55.904;2023-01-15T02:32:50;7.63;;;4.28;;
60054;SDS011;45930;53.514;55.904;2023-01-15T02:33:55;8.05;;;4.78;;
60054;SDS011;45930;53.514;55.904;2023-01-15T02:35:03;6.70;;;4.57;;
60054;SDS011;45930;53.514;55.904;2023-01-15T02:36:08;8.02;;;4.80;;
60054;SDS011;45930;53.514;55.904;2023-01-15T02:37:13;6.70;;;4.28;;
60054;SDS011;45930;53.514;55.904;2023-01-15T02:38:19;5.65;;;4.00;;
60054;SDS011;45930;53.514;55.904;2023-01-15T02:39:22;6.75;;;4.10;;
60054;SDS011;45930;53.514;55.904;2023-01-15T02:40:26;9.00;;;4.63;;
60054;SDS011;45930;53.514;55.904;2023-01-15T02:41:30;8.50;;;4.55;;
60054;SDS011;45930;53.514;55.904;2023-01-15T02:42:35;11.05;;;5.38;;
60054;SDS011;45930;53.514;55.904;2023-01-15T02:43:38;22.60;;;10.52;;
60054;SDS011;45930;53.514;55.904;2023-01-15T02:44:40;17.55;;;8.50;;
60054;SDS011;45930;53.514;55.904;2023-01-15T02:45:47;17.17;;;7.88;;
60054;SDS011;45930;53.514;55.904;2023-01-15T02:46:51;14.48;;;7.18;;
60054;SDS011;45930;53.514;55.904;2023-01-15T02:47:54;12.50;;;7.65;;
60054;SDS011;45930;53.514;55.904;2023-01-15T02:48:57;12.43;;;7.00;;
60054;SDS011;45930;53.514;55.904;2023-01-15T02:50:02;10.68;;;5.65;;
60054;SDS011;45930;53.514;55.904;2023-01-15T02:51:06;11.20;;;5.32;;
60054;SDS011;45930;53.514;55.904;2023-01-15T02:52:19;12.85;;;6.03;;
60054;SDS011;45930;53.514;55.904;2023-01-15T02:53:24;8.15;;;5.18;;
60054;SDS011;45930;53.514;55.904;2023-01-15T02:54:30;13.43;;;6.47;;
60054;SDS011;45930;53.514;55.904;2023-01-15T02:55:37;10.70;;;5.70;;
60054;SDS011;45930;53.514;55.904;2023-01-15T02:56:44;10.27;;;5.53;;
60054;SDS011;45930;53.514;55.904;2023-01-15T02:57:48;14.57;;;5.90;;
60054;SDS011;45930;53.514;55.904;2023-01-15T02:58:55;14.38;;;6.82;;
60054;SDS011;45930;53.514;55.904;2023-01-15T03:00:00;10.70;;;4.68;;
60054;SDS011;45930;53.514;55.904;2023-01-15T03:01:08;8.63;;;4.28;;
60054;SDS011;45930;53.514;55.904;2023-01-15T03:02:15;12.10;;;4.95;;
60054;SDS011;45930;53.514;55.904;2023-01-15T03:03:23;9.13;;;4.72;;
60054;SDS011;45930;53.514;55.904;2023-01-15T03:04:40;7.18;;;3.83;;
60054;SDS011;45930;53.514;55.904;2023-01-15T03:06:07;7.53;;;4.82;;
60054;SDS011;45930;53.514;55.904;2023-01-15T03:08:40;8.20;;;4.40;;
60054;SDS011;45930;53.514;55.904;2023-01-15T03:09:41;8.77;;;4.60;;
60054;SDS011;45930;53.514;55.904;2023-01-15T03:14:35;7.97;;;3.95;;
60054;SDS011;45930;53.514;55.904;2023-01-15T03:19:06;6.97;;;4.07;;
60054;SDS011;45930;53.514;55.904;2023-01-15T03:20:24;10.13;;;5.18;;
60054;SDS011;45930;53.514;55.904;2023-01-15T03:22:51;6.35;;;4.20;;
60054;SDS011;45930;53.514;55.904;2023-01-15T03:24:00;8.88;;;5.05;;
60054;SDS011;45930;53.514;55.904;2023-01-15T03:25:18;9.68;;;4.15;;
60054;SDS011;45930;53.514;55.904;2023-01-15T03:26:23;8.73;;;4.78;;
60054;SDS011;45930;53.514;55.904;2023-01-15T03:27:24;8.83;;;4.07;;
60054;SDS011;45930;53.514;55.904;2023-01-15T03:28:25;6.37;;;4.37;;
60054;SDS011;45930;53.514;55.904;2023-01-15T03:29:38;7.22;;;3.65;;
60054;SDS011;45930;53.514;55.904;2023-01-15T03:30:42;10.80;;;3.78;;
60054;SDS011;45930;53.514;55.904;2023-01-15T03:31:43;8.10;;;4.43;;
60054;SDS011;45930;53.514;55.904;2023-01-15T03:32:44;7.03;;;3.83;;
60054;SDS011;45930;53.514;55.904;2023-01-15T03:33:45;9.60;;;4.60;;
60054;SDS011;45930;53.514;55.904;2023-01-15T03:34:50;9.80;;;4.55;;
60054;SDS011;45930;53.514;55.904;2023-01-15T03:35:54;6.20;;;4.35;;
60054;SDS011;45930;53.514;55.904;2023-01-15T03:36:57;11.38;;;4.78;;
60054;SDS011;45930;53.514;55.904;2023-01-15T03:37:58;7.13;;;4.53;;
60054;SDS011;45930;53.514;55.904;2023-01-15T03:38:59;9.83;;;5.00;;
60054;SDS011;45930;53.514;55.904;2023-01-15T03:40:00;11.57;;;5.05;;
60054;SDS011;45930;53.514;55.904;2023-01-15T03:44:39;8.38;;;3.80;;
60054;SDS011;45930;53.514;55.904;2023-01-15T03:45:42;9.63;;;4.22;;
60054;SDS011;45930;53.514;55.904;2023-01-15T03:46:53;8.07;;;5.30;;
60054;SDS011;45930;53.514;55.904;2023-01-15T03:47:59;8.50;;;5.07;;
60054;SDS011;45930;53.514;55.904;2023-01-15T03:50:40;7.95;;;4.68;;
60054;SDS011;45930;53.514;55.904;2023-01-15T03:53:04;6.32;;;3.88;;
60054;SDS011;45930;53.514;55.904;2023-01-15T03:54:14;6.85;;;3.75;;
60054;SDS011;45930;53.514;55.904;2023-01-15T03:55:23;7.53;;;4.00;;
60054;SDS011;45930;53.514;55.904;2023-01-15T03:56:36;8.23;;;4.80;;
60054;SDS011;45930;53.514;55.904;2023-01-15T03:57:56;6.45;;;4.03;;
60054;SDS011;45930;53.514;55.904;2023-01-15T03:59:00;7.40;;;4.88;;
60054;SDS011;45930;53.514;55.904;2023-01-15T04:00:07;8.98;;;4.93;;
60054;SDS011;45930;53.514;55.904;2023-01-15T04:01:36;6.43;;;3.85;;
60054;SDS011;45930;53.514;55.904;2023-01-15T04:02:40;9.65;;;4.32;;
60054;SDS011;45930;53.514;55.904;2023-01-15T04:03:43;6.75;;;4.38;;
60054;SDS011;45930;53.514;55.904;2023-01-15T04:04:48;6.78;;;4.70;;
60054;SDS011;45930;53.514;55.904;2023-01-15T04:05:50;8.77;;;4.32;;
60054;SDS011;45930;53.514;55.904;2023-01-15T04:06:54;7.50;;;3.92;;
60054;SDS011;45930;53.514;55.904;2023-01-15T04:07:57;6.03;;;4.38;;
60054;SDS011;45930;53.514;55.904;2023-01-15T04:08:59;7.40;;;4.25;;
60054;SDS011;45930;53.514;55.904;2023-01-15T04:10:01;9.75;;;4.55;;
60054;SDS011;45930;53.514;55.904;2023-01-15T04:11:03;8.88;;;4.70;;
60054;SDS011;45930;53.514;55.904;2023-01-15T04:12:04;6.37;;;4.27;;
60054;SDS011;45930;53.514;55.904;2023-01-15T04:13:06;10.55;;;4.85;;
60054;SDS011;45930;53.514;55.904;2023-01-15T04:14:06;9.60;;;4.93;;
60054;SDS011;45930;53.514;55.904;2023-01-15T04:15:09;11.30;;;4.93;;
60054;SDS011;45930;53.514;55.904;2023-01-15T04:16:11;9.85;;;4.28;;
60054;SDS011;45930;53.514;55.904;2023-01-15T04:17:11;7.53;;;5.03;;
60054;SDS011;45930;53.514;55.904;2023-01-15T04:18:12;9.63;;;4.30;;
60054;SDS011;45930;53.514;55.904;2023-01-15T04:19:13;11.53;;;6.63;;
60054;SDS011;45930;53.514;55.904;2023-01-15T04:20:14;8.53;;;5.00;;
60054;SDS011;45930;53.514;55.904;2023-01-15T04:21:14;8.47;;;4.90;;
60054;SDS011;45930;53.514;55.904;2023-01-15T04:22:15;10.87;;;5.10;;
60054;SDS011;45930;53.514;55.904;2023-01-15T04:23:16;11.07;;;5.47;;
60054;SDS011;45930;53.514;55.904;2023-01-15T04:24:17;9.57;;;4.65;;
60054;SDS011;45930;53.514;55.904;2023-01-15T04:25:18;14.67;;;5.83;;
60054;SDS011;45930;53.514;55.904;2023-01-15T04:26:18;11.87;;;5.60;;
60054;SDS011;45930;53.514;55.904;2023-01-15T04:27:19;11.43;;;5.83;;
60054;SDS011;45930;53.514;55.904;2023-01-15T04:28:20;12.37;;;5.47;;
60054;SDS011;45930;53.514;55.904;2023-01-15T04:29:21;13.07;;;6.27;;
60054;SDS011;45930;53.514;55.904;2023-01-15T04:30:22;7.80;;;5.03;;
60054;SDS011;45930;53.514;55.904;2023-01-15T04:31:25;9.40;;;5.47;;
60054;SDS011;45930;53.514;55.904;2023-01-15T04:32:27;8.52;;;5.53;;
60054;SDS011;45930;53.514;55.904;2023-01-15T04:33:27;13.33;;;4.77;;
60054;SDS011;45930;53.514;55.904;2023-01-15T04:34:28;7.07;;;5.17;;
60054;SDS011;45930;53.514;55.904;2023-01-15T04:35:29;8.65;;;5.03;;
60054;SDS011;45930;53.514;55.904;2023-01-15T04:36:30;10.30;;;5.43;;
60054;SDS011;45930;53.514;55.904;2023-01-15T04:37:34;8.65;;;5.28;;
60054;SDS011;45930;53.514;55.904;2023-01-15T04:38:36;8.87;;;5.03;;
60054;SDS011;45930;53.514;55.904;2023-01-15T04:39:37;8.85;;;5.05;;
60054;SDS011;45930;53.514;55.904;2023-01-15T04:40:38;13.90;;;5.20;;
60054;SDS011;45930;53.514;55.904;2023-01-15T04:41:57;8.43;;;5.68;;
60054;SDS011;45930;53.514;55.904;2023-01-15T04:43:17;8.35;;;4.97;;
60054;SDS011;45930;53.514;55.904;2023-01-15T04:44:39;6.97;;;5.15;;
60054;SDS011;45930;53.514;55.904;2023-01-15T04:45:39;13.75;;;4.85;;
60054;SDS011;45930;53.514;55.904;2023-01-15T04:46:43;13.05;;;5.80;;
60054;SDS011;45930;53.514;55.904;2023-01-15T04:47:45;12.43;;;5.75;;
60054;SDS011;45930;53.514;55.904;2023-01-15T04:48:46;10.63;;;5.70;;
60054;SDS011;45930;53.514;55.904;2023-01-15T04:49:46;12.63;;;6.83;;
60054;SDS011;45930;53.514;55.904;2023-01-15T04:50:47;11.97;;;5.33;;
60054;SDS011;45930;53.514;55.904;2023-01-15T04:51:48;11.60;;;5.43;;
60054;SDS011;45930;53.514;55.904;2023-01-15T04:52:49;14.37;;;6.33;;
60054;SDS011;45930;53.514;55.904;2023-01-15T04:53:49;9.47;;;5.80;;
60054;SDS011;45930;53.514;55.904;2023-01-15T04:54:52;10.40;;;5.93;;
60054;SDS011;45930;53.514;55.904;2023-01-15T04:55:58;11.60;;;5.60;;
60054;SDS011;45930;53.514;55.904;2023-01-15T04:57:03;14.23;;;6.70;;
60054;SDS011;45930;53.514;55.904;2023-01-15T04:58:04;8.27;;;5.07;;
60054;SDS011;45930;53.514;55.904;2023-01-15T04:59:04;13.00;;;6.53;;
60054;SDS011;45930;53.514;55.904;2023-01-15T05:00:06;9.77;;;6.25;;
60054;SDS011;45930;53.514;55.904;2023-01-15T05:01:14;12.43;;;6.07;;
60054;SDS011;45930;53.514;55.904;2023-01-15T05:02:15;12.13;;;6.57;;
60054;SDS011;45930;53.514;55.904;2023-01-15T05:03:16;9.70;;;5.67;;
60054;SDS011;45930;53.514;55.904;2023-01-15T05:04:17;11.73;;;6.73;;
60054;SDS011;45930;53.514;55.904;2023-01-15T05:05:18;13.90;;;7.43;;
60054;SDS011;45930;53.514;55.904;2023-01-15T05:06:19;12.57;;;7.23;;
60054;SDS011;45930;53.514;55.904;2023-01-15T05:07:19;11.07;;;6.50;;
60054;SDS011;45930;53.514;55.904;2023-01-15T05:08:20;11.07;;;6.80;;
60054;SDS011;45930;53.514;55.904;2023-01-15T05:09:21;14.27;;;6.47;;
60054;SDS011;45930;53.514;55.904;2023-01-15T05:10:22;12.20;;;5.60;;
60054;SDS011;45930;53.514;55.904;2023-01-15T05:11:22;12.00;;;6.63;;
60054;SDS011;45930;53.514;55.904;2023-01-15T05:12:24;14.45;;;7.43;;
60054;SDS011;45930;53.514;55.904;2023-01-15T05:13:25;10.05;;;6.57;;
60054;SDS011;45930;53.514;55.904;2023-01-15T05:14:26;12.40;;;6.30;;
60054;SDS011;45930;53.514;55.904;2023-01-15T05:15:27;9.30;;;5.53;;
60054;SDS011;45930;53.514;55.904;2023-01-15T05:16:27;10.57;;;5.80;;
60054;SDS011;45930;53.514;55.904;2023-01-15T05:17:30;12.52;;;6.30;;
60054;SDS011;45930;53.514;55.904;2023-01-15T05:18:32;9.68;;;6.10;;
60054;SDS011;45930;53.514;55.904;2023-01-15T05:19:32;10.87;;;6.23;;
60054;SDS011;45930;53.514;55.904;2023-01-15T05:20:36;13.87;;;7.20;;
60054;SDS011;45930;53.514;55.904;2023-01-15T05:21:39;12.60;;;5.25;;
60054;SDS011;45930;53.514;55.904;2023-01-15T05:22:41;15.55;;;6.35;;
60054;SDS011;45930;53.514;55.904;2023-01-15T05:23:42;10.60;;;6.07;;
60054;SDS011;45930;53.514;55.904;2023-01-15T05:24:44;10.00;;;6.00;;
60054;SDS011;45930;53.514;55.904;2023-01-15T05:25:46;10.30;;;5.90;;
60054;SDS011;45930;53.514;55.904;2023-01-15T05:26:46;8.90;;;5.30;;
60054;SDS011;45930;53.514;55.904;2023-01-15T05:27:47;12.77;;;6.13;;
60054;SDS011;45930;53.514;55.904;2023-01-15T05:28:48;10.80;;;5.87;;
60054;SDS011;45930;53.514;55.904;2023-01-15T05:29:51;8.85;;;5.95;;
60054;SDS011;45930;53.514;55.904;2023-01-15T05:30:52;9.10;;;5.63;;
60054;SDS011;45930;53.514;55.904;2023-01-15T05:31:53;12.73;;;5.23;;
60054;SDS011;45930;53.514;55.904;2023-01-15T05:32:54;8.60;;;5.57;;
60054;SDS011;45930;53.514;55.904;2023-01-15T05:33:55;10.63;;;5.83;;
60054;SDS011;45930;53.514;55.904;2023-01-15T05:34:59;13.10;;;6.13;;
60054;SDS011;45930;53.514;55.904;2023-01-15T05:36:01;9.85;;;5.47;;
60054;SDS011;45930;53.514;55.904;2023-01-15T05:37:05;9.32;;;5.70;;
60054;SDS011;45930;53.514;55.904;2023-01-15T05:38:05;8.87;;;5.70;;
60054;SDS011;45930;53.514;55.904;2023-01-15T05:39:06;15.07;;;6.53;;
60054;SDS011;45930;53.514;55.904;2023-01-15T05:40:07;9.17;;;6.30;;
60054;SDS011;45930;53.514;55.904;2023-01-15T05:41:10;11.32;;;6.70;;
60054;SDS011;45930;53.514;55.904;2023-01-15T05:42:31;9.65;;;5.47;;
60054;SDS011;45930;53.514;55.904;2023-01-15T05:43:32;9.60;;;6.47;;
60054;SDS011;45930;53.514;55.904;2023-01-15T05:44:33;9.97;;;5.57;;
60054;SDS011;45930;53.514;55.904;2023-01-15T05:45:34;11.47;;;6.37;;
60054;SDS011;45930;53.514;55.904;2023-01-15T05:46:37;10.50;;;5.65;;
60054;SDS011;45930;53.514;55.904;2023-01-15T05:47:39;11.75;;;6.15;;
60054;SDS011;45930;53.514;55.904;2023-01-15T05:48:39;12.37;;;6.70;;
60054;SDS011;45930;53.514;55.904;2023-01-15T05:49:40;10.30;;;6.13;;
60054;SDS011;45930;53.514;55.904;2023-01-15T05:50:41;11.70;;;6.80;;
60054;SDS011;45930;53.514;55.904;2023-01-15T05:51:42;10.30;;;6.27;;
60054;SDS011;45930;53.514;55.904;2023-01-15T05:52:43;10.90;;;5.32;;
60054;SDS011;45930;53.514;55.904;2023-01-15T05:53:44;8.97;;;6.17;;
60054;SDS011;45930;53.514;55.904;2023-01-15T05:54:47;11.93;;;6.55;;
60054;SDS011;45930;53.514;55.904;2023-01-15T05:55:50;10.13;;;5.93;;
60054;SDS011;45930;53.514;55.904;2023-01-15T05:56:56;11.48;;;6.68;;
60054;SDS011;45930;53.514;55.904;2023-01-15T05:57:57;8.52;;;5.38;;
60054;SDS011;45930;53.514;55.904;2023-01-15T05:58:58;13.40;;;6.77;;
60054;SDS011;45930;53.514;55.904;2023-01-15T05:59:59;9.40;;;6.10;;
60054;SDS011;45930;53.514;55.904;2023-01-15T06:01:04;10.23;;;5.80;;
60054;SDS011;45930;53.514;55.904;2023-01-15T06:02:08;10.95;;;6.35;;
60054;SDS011;45930;53.514;55.904;2023-01-15T06:03:09;13.07;;;6.87;;
60054;SDS011;45930;53.514;55.904;2023-01-15T06:04:10;9.50;;;5.93;;
60054;SDS011;45930;53.514;55.904;2023-01-15T06:05:13;11.55;;;6.88;;
60054;SDS011;45930;53.514;55.904;2023-01-15T06:06:19;11.05;;;5.97;;
60054;SDS011;45930;53.514;55.904;2023-01-15T06:07:20;13.57;;;6.53;;
60054;SDS011;45930;53.514;55.904;2023-01-15T06:08:21;12.77;;;6.40;;
60054;SDS011;45930;53.514;55.904;2023-01-15T06:09:23;10.48;;;6.13;;
60054;SDS011;45930;53.514;55.904;2023-01-15T06:10:27;9.93;;;5.93;;
60054;SDS011;45930;53.514;55.904;2023-01-15T06:11:27;13.23;;;6.30;;
60054;SDS011;45930;53.514;55.904;2023-01-15T06:12:28;11.23;;;6.27;;
60054;SDS011;45930;53.514;55.904;2023-01-15T06:13:29;11.03;;;6.70;;
60054;SDS011;45930;53.514;55.904;2023-01-15T06:14:30;10.23;;;7.37;;
60054;SDS011;45930;53.514;55.904;2023-01-15T06:15:30;14.03;;;6.73;;
60054;SDS011;45930;53.514;55.904;2023-01-15T06:16:32;10.02;;;6.55;;
60054;SDS011;45930;53.514;55.904;2023-01-15T06:17:33;13.20;;;6.53;;
60054;SDS011;45930;53.514;55.904;2023-01-15T06:18:39;16.48;;;7.43;;
60054;SDS011;45930;53.514;55.904;2023-01-15T06:19:40;14.02;;;7.10;;
60054;SDS011;45930;53.514;55.904;2023-01-15T06:20:41;13.77;;;6.77;;
60054;SDS011;45930;53.514;55.904;2023-01-15T06:21:42;13.07;;;6.93;;
60054;SDS011;45930;53.514;55.904;2023-01-15T06:22:43;13.73;;;6.53;;
60054;SDS011;45930;53.514;55.904;2023-01-15T06:23:44;10.17;;;6.23;;
60054;SDS011;45930;53.514;55.904;2023-01-15T06:24:45;10.07;;;5.77;;
60054;SDS011;45930;53.514;55.904;2023-01-15T06:25:45;13.40;;;7.17;;
60054;SDS011;45930;53.514;55.904;2023-01-15T06:26:46;10.20;;;6.90;;
60054;SDS011;45930;53.514;55.904;2023-01-15T06:27:47;12.70;;;7.47;;
60054;SDS011;45930;53.514;55.904;2023-01-15T06:28:48;11.00;;;6.38;;
60054;SDS011;45930;53.514;55.904;2023-01-15T06:29:49;10.25;;;6.15;;
60054;SDS011;45930;53.514;55.904;2023-01-15T06:30:50;12.07;;;6.00;;
60054;SDS011;45930;53.514;55.904;2023-01-15T06:31:51;10.77;;;7.17;;
60054;SDS011;45930;53.514;55.904;2023-01-15T06:32:52;8.07;;;5.70;;
60054;SDS011;45930;53.514;55.904;2023-01-15T06:33:53;12.90;;;6.50;;
60054;SDS011;45930;53.514;55.904;2023-01-15T06:34:54;11.13;;;6.18;;
60054;SDS011;45930;53.514;55.904;2023-01-15T06:35:55;11.47;;;6.17;;
60054;SDS011;45930;53.514;55.904;2023-01-15T06:36:56;10.63;;;5.93;;
60054;SDS011;45930;53.514;55.904;2023-01-15T06:38:00;10.18;;;6.07;;
60054;SDS011;45930;53.514;55.904;2023-01-15T06:39:00;11.37;;;5.93;;
60054;SDS011;45930;53.514;55.904;2023-01-15T06:40:01;10.20;;;6.50;;